createdAt,value
2022-08-25T00:00:16.198Z,100653.32
2022-08-25T00:02:54.985Z,100655.91
2022-08-25T00:05:32.454Z,100659.52
2022-08-25T00:08:05.387Z,100658.88
2022-08-25T00:10:35.807Z,100657.56
2022-08-25T00:13:06.132Z,100655.27
2022-08-25T00:15:35.175Z,100649.92
2022-08-25T00:18:03.012Z,100655.45
2022-08-25T00:20:31.460Z,100652.92
2022-08-25T00:22:59.706Z,100651.09
2022-08-25T00:25:27.721Z,100651.02
2022-08-25T00:27:57.767Z,100645.98
2022-08-25T00:30:27.202Z,100648.02
2022-08-25T00:32:56.903Z,100648.08
2022-08-25T00:35:26.856Z,100642.11
2022-08-25T00:37:54.968Z,100644.54
2022-08-25T00:40:24.889Z,100643.77
2022-08-25T00:42:53.828Z,100643.82
2022-08-25T00:45:21.693Z,100643.20
2022-08-25T00:47:49.981Z,100641.70
2022-08-25T00:50:19.263Z,100642.19
2022-08-25T00:52:50.225Z,100640.70
2022-08-25T00:55:21.045Z,100641.71
2022-08-25T00:57:52.528Z,100640.77
2022-08-25T01:00:24.775Z,100644.14
2022-08-25T01:02:52.614Z,100647.67
2022-08-25T01:05:20.735Z,100650.37
2022-08-25T01:07:50.725Z,100648.48
2022-08-25T01:10:21.346Z,100649.42
2022-08-25T01:12:49.998Z,100647.02
2022-08-25T01:15:18.107Z,100649.48
2022-08-25T01:17:51.611Z,100653.55
2022-08-25T01:20:22.038Z,100652.98
2022-08-25T01:22:55.282Z,100650.54
2022-08-25T01:25:33.529Z,100651.95
2022-08-25T01:28:01.872Z,100658.11
2022-08-25T01:30:29.975Z,100653.05
2022-08-25T01:32:57.583Z,100651.06
2022-08-25T01:35:25.308Z,100648.80
2022-08-25T01:37:53.605Z,100646.71
2022-08-25T01:40:22.527Z,100645.20
2022-08-25T01:43:02.775Z,100640.30
2022-08-25T01:45:30.345Z,100643.75
2022-08-25T01:47:58.084Z,100645.48
2022-08-25T01:50:26.032Z,100640.05
2022-08-25T01:52:59.293Z,100640.50
2022-08-25T01:55:27.106Z,100641.45
2022-08-25T01:57:54.975Z,100639.91
2022-08-25T02:00:26.168Z,100640.55
2022-08-25T02:02:54.256Z,100643.91
2022-08-25T02:05:25.470Z,100644.38
2022-08-25T02:07:53.002Z,100646.08
2022-08-25T02:10:22.014Z,100642.68
2022-08-25T02:12:51.039Z,100638.88
2022-08-25T02:15:22.297Z,100636.74
2022-08-25T02:17:50.245Z,100640.23
2022-08-25T02:20:18.539Z,100640.48
2022-08-25T02:22:56.520Z,100637.64
2022-08-25T02:25:24.973Z,100631.29
2022-08-25T02:27:55.091Z,100628.84
2022-08-25T02:30:22.942Z,100623.39
2022-08-25T02:32:51.247Z,100621.61
2022-08-25T02:35:19.546Z,100614.45
2022-08-25T02:37:48.376Z,100614.11
2022-08-25T02:40:16.606Z,100616.90
2022-08-25T02:42:44.333Z,100620.02
2022-08-25T02:45:12.051Z,100613.52
2022-08-25T02:47:39.791Z,100612.26
2022-08-25T02:50:09.245Z,100610.70
2022-08-25T02:52:37.899Z,100613.02
2022-08-25T02:55:12.208Z,100608.14
2022-08-25T02:57:41.397Z,100602.04
2022-08-25T03:00:12.903Z,100603.77
2022-08-25T03:02:41.154Z,100608.12
2022-08-25T03:05:11.171Z,100609.45
2022-08-25T03:07:39.132Z,100606.07
2022-08-25T03:10:11.693Z,100602.61
2022-08-25T03:12:41.369Z,100599.78
2022-08-25T03:15:13.161Z,100600.33
2022-08-25T03:17:41.151Z,100603.06
2022-08-25T03:20:13.766Z,100605.50
2022-08-25T03:22:42.164Z,100602.64
2022-08-25T03:25:29.059Z,100603.90
2022-08-25T03:27:57.793Z,100600.02
2022-08-25T03:30:25.558Z,100598.80
2022-08-25T03:32:53.158Z,100601.18
2022-08-25T03:35:21.433Z,100604.62
2022-08-25T03:37:50.912Z,100598.98
2022-08-25T03:40:18.652Z,100602.02
2022-08-25T03:42:46.542Z,100601.02
2022-08-25T03:45:16.199Z,100602.17
2022-08-25T03:47:49.129Z,100604.07
2022-08-25T03:50:19.107Z,100608.92
2022-08-25T03:52:51.682Z,100610.20
2022-08-25T03:55:19.887Z,100608.93
2022-08-25T03:57:47.822Z,100613.86
2022-08-25T04:00:16.087Z,100611.60
2022-08-25T04:02:44.676Z,100614.33
2022-08-25T04:05:14.206Z,100612.70
2022-08-25T04:07:43.547Z,100611.94
2022-08-25T04:10:12.208Z,100613.77
2022-08-25T04:12:39.847Z,100619.12
2022-08-25T04:15:10.283Z,100614.23
2022-08-25T04:17:39.555Z,100611.56
2022-08-25T04:20:14.128Z,100610.17
2022-08-25T04:22:44.992Z,100611.09
2022-08-25T04:25:13.348Z,100611.54
2022-08-25T04:27:41.359Z,100612.29
2022-08-25T04:30:12.171Z,100617.30
2022-08-25T04:32:39.786Z,100617.02
2022-08-25T04:35:09.016Z,100620.75
2022-08-25T04:37:36.674Z,100616.85
2022-08-25T04:40:06.008Z,100618.38
2022-08-25T04:42:34.215Z,100619.45
2022-08-25T04:45:03.403Z,100618.14
2022-08-25T04:47:31.032Z,100615.90
2022-08-25T04:49:58.662Z,100619.05
2022-08-25T04:52:26.454Z,100621.19
2022-08-25T04:54:54.746Z,100617.25
2022-08-25T04:57:24.609Z,100620.84
2022-08-25T04:59:52.403Z,100615.95
2022-08-25T05:02:20.102Z,100616.19
2022-08-25T05:04:49.064Z,100617.31
2022-08-25T05:07:16.873Z,100618.29
2022-08-25T05:09:44.488Z,100618.98
2022-08-25T05:12:12.781Z,100622.80
2022-08-25T05:14:43.257Z,100622.55
2022-08-25T05:17:11.016Z,100618.06
2022-08-25T05:19:38.649Z,100613.20
2022-08-25T05:22:06.502Z,100611.30
2022-08-25T05:24:34.197Z,100612.27
2022-08-25T05:27:03.552Z,100612.35
2022-08-25T05:29:33.696Z,100613.07
2022-08-25T05:32:01.403Z,100608.91
2022-08-25T05:34:29.600Z,100605.64
2022-08-25T05:36:59.405Z,100604.34
2022-08-25T05:39:27.510Z,100603.73
2022-08-25T05:41:55.166Z,100604.17
2022-08-25T05:44:22.843Z,100608.05
2022-08-25T05:46:51.090Z,100605.17
2022-08-25T05:49:21.797Z,100605.84
2022-08-25T05:51:51.562Z,100607.36
2022-08-25T05:54:19.627Z,100601.98
2022-08-25T05:56:47.258Z,100601.27
2022-08-25T05:59:14.993Z,100608.20
2022-08-25T06:02:01.462Z,100608.73
2022-08-25T06:04:29.193Z,100607.21
2022-08-25T06:06:56.883Z,100610.95
2022-08-25T06:09:24.825Z,100612.60
2022-08-25T06:11:54.879Z,100610.31
2022-08-25T06:14:23.980Z,100611.59
2022-08-25T06:16:52.265Z,100604.43
2022-08-25T06:19:20.571Z,100602.90
2022-08-25T06:21:48.587Z,100609.35
2022-08-25T06:24:16.529Z,100609.45
2022-08-25T06:26:44.089Z,100614.05
2022-08-25T06:29:13.410Z,100618.55
2022-08-25T06:31:41.912Z,100615.46
2022-08-25T06:34:10.769Z,100620.50
2022-08-25T06:36:38.575Z,100622.20
2022-08-25T06:39:06.580Z,100627.62
2022-08-25T06:41:37.071Z,100625.86
2022-08-25T06:44:05.891Z,100630.20
2022-08-25T06:46:35.733Z,100631.05
2022-08-25T06:49:05.955Z,100634.46
2022-08-25T06:51:35.391Z,100634.98
2022-08-25T06:54:03.854Z,100637.41
2022-08-25T06:56:31.491Z,100639.27
2022-08-25T06:59:00.243Z,100641.77
2022-08-25T07:01:27.880Z,100647.68
2022-08-25T07:03:57.452Z,100644.75
2022-08-25T07:06:26.466Z,100642.64
2022-08-25T07:08:54.615Z,100641.34
2022-08-25T07:11:22.360Z,100641.66
2022-08-25T07:13:51.125Z,100642.64
2022-08-25T07:16:20.512Z,100643.94
2022-08-25T07:18:49.196Z,100646.97
2022-08-25T07:21:20.632Z,100644.56
2022-08-25T07:23:51.820Z,100645.10
2022-08-25T07:26:36.934Z,100644.81
2022-08-25T07:29:12.592Z,100643.35
2022-08-25T07:31:40.544Z,100640.88
2022-08-25T07:34:28.504Z,100639.17
2022-08-25T07:36:57.089Z,100647.30
2022-08-25T07:39:25.677Z,100642.84
2022-08-25T07:41:53.846Z,100647.70
2022-08-25T07:44:22.462Z,100641.02
2022-08-25T07:46:51.340Z,100643.02
2022-08-25T07:49:23.313Z,100641.33
2022-08-25T07:52:05.564Z,100637.95
2022-08-25T07:54:35.746Z,100636.67
2022-08-25T07:57:08.539Z,100631.25
2022-08-25T07:59:40.454Z,100631.17
2022-08-25T08:02:18.349Z,100632.60
2022-08-25T08:04:49.527Z,100633.30
2022-08-25T08:07:19.371Z,100640.48
2022-08-25T08:09:55.790Z,100637.56
2022-08-25T08:12:28.168Z,100632.88
2022-08-25T08:14:55.871Z,100634.16
2022-08-25T08:17:23.572Z,100637.27
2022-08-25T08:19:51.769Z,100637.51
2022-08-25T08:22:20.249Z,100637.36
2022-08-25T08:24:54.120Z,100638.38
2022-08-25T08:27:24.274Z,100637.17
2022-08-25T08:29:52.940Z,100634.64
2022-08-25T08:32:21.484Z,100637.30
2022-08-25T08:34:53.511Z,100638.77
2022-08-25T08:37:22.995Z,100637.94
2022-08-25T08:39:51.952Z,100632.80
2022-08-25T08:42:39.039Z,100632.18
2022-08-25T08:45:20.610Z,100633.83
2022-08-25T08:48:15.708Z,100629.81
2022-08-25T08:50:55.919Z,100622.98
2022-08-25T08:53:33.998Z,100621.32
2022-08-25T08:56:11.780Z,100619.11
2022-08-25T08:58:44.394Z,100616.74
2022-08-25T09:01:17.465Z,100615.55
2022-08-25T09:03:55.185Z,100614.93
2022-08-25T09:06:31.935Z,100616.73
2022-08-25T09:09:04.087Z,100616.56
2022-08-25T09:11:50.942Z,100616.45
2022-08-25T09:14:33.493Z,100616.95
2022-08-25T09:17:08.342Z,100612.02
2022-08-25T09:20:02.051Z,100609.52
2022-08-25T09:22:47.881Z,100605.86
2022-08-25T09:25:39.823Z,100603.89
2022-08-25T09:28:18.632Z,100601.68
2022-08-25T09:30:53.079Z,100602.81
2022-08-25T09:33:23.281Z,100599.89
2022-08-25T09:35:53.587Z,100601.80
2022-08-25T09:38:22.012Z,100602.77
2022-08-25T09:40:51.972Z,100603.16
2022-08-25T09:43:23.507Z,100596.98
2022-08-25T09:46:00.310Z,100594.36
2022-08-25T09:48:39.786Z,100591.85
2022-08-25T09:51:18.528Z,100592.52
2022-08-25T09:53:53.532Z,100587.96
2022-08-25T09:56:23.965Z,100581.64
2022-08-25T09:58:54.689Z,100579.10
2022-08-25T10:01:24.558Z,100577.63
2022-08-25T10:03:59.107Z,100576.62
2022-08-25T10:06:29.672Z,100574.88
2022-08-25T10:09:01.504Z,100569.79
2022-08-25T10:11:37.359Z,100569.73
2022-08-25T10:14:17.760Z,100559.02
2022-08-25T10:16:46.883Z,100557.52
2022-08-25T10:19:24.863Z,100552.11
2022-08-25T10:22:06.167Z,100547.73
2022-08-25T10:24:35.082Z,100537.89
2022-08-25T10:27:14.749Z,100536.70
2022-08-25T10:29:58.791Z,100531.26
2022-08-25T10:32:37.041Z,100532.55
2022-08-25T10:35:12.183Z,100535.33
2022-08-25T10:37:48.743Z,100534.93
2022-08-25T10:40:24.708Z,100529.40
2022-08-25T10:43:06.684Z,100529.15
2022-08-25T10:45:43.267Z,100518.64
2022-08-25T10:48:25.236Z,100516.84
2022-08-25T10:51:00.222Z,100513.84
2022-08-25T10:53:41.716Z,100507.73
2022-08-25T10:56:16.632Z,100501.42
2022-08-25T10:59:09.867Z,100500.27
2022-08-25T11:01:53.450Z,100493.14
2022-08-25T11:04:27.380Z,100487.77
2022-08-25T11:06:58.990Z,100484.31
2022-08-25T11:09:33.110Z,100480.94
2022-08-25T11:12:09.251Z,100476.43
2022-08-25T11:14:40.371Z,100468.50
2022-08-25T11:17:15.835Z,100465.88
2022-08-25T11:19:48.766Z,100458.56
2022-08-25T11:22:21.105Z,100457.92
2022-08-25T11:25:00.809Z,100456.75
2022-08-25T11:27:38.056Z,100451.51
2022-08-25T11:30:10.116Z,100458.35
2022-08-25T11:32:39.808Z,100457.25
2022-08-25T11:35:12.141Z,100453.20
2022-08-25T11:37:53.408Z,100449.31
2022-08-25T11:40:36.862Z,100445.73
2022-08-25T11:43:21.751Z,100440.88
2022-08-25T11:46:07.155Z,100439.71
2022-08-25T11:48:50.642Z,100440.93
2022-08-25T11:51:33.846Z,100442.20
2022-08-25T11:54:24.541Z,100445.91
2022-08-25T11:56:56.599Z,100441.59
2022-08-25T12:00:06.391Z,100439.73
2022-08-25T12:02:38.412Z,100439.19
2022-08-25T12:05:08.687Z,100440.61
2022-08-25T12:08:28.539Z,100439.16
2022-08-25T12:10:59.427Z,100430.82
2022-08-25T12:13:42.966Z,100430.02
2022-08-25T12:16:42.091Z,100427.49
2022-08-25T12:19:29.448Z,100429.09
2022-08-25T12:22:18.540Z,100431.44
2022-08-25T12:24:52.941Z,100427.08
2022-08-25T12:27:28.953Z,100430.20
2022-08-25T12:30:13.252Z,100431.21
2022-08-25T12:33:04.145Z,100427.66
2022-08-25T12:35:37.260Z,100425.05
2022-08-25T12:38:10.074Z,100420.94
2022-08-25T12:40:58.362Z,100421.89
2022-08-25T12:43:37.665Z,100420.25
2022-08-25T12:46:34.689Z,100418.40
2022-08-25T12:49:04.673Z,100417.27
2022-08-25T12:51:54.081Z,100411.16
2022-08-25T12:54:32.162Z,100405.81
2022-08-25T12:57:03.612Z,100401.00
2022-08-25T12:59:39.500Z,100394.84
2022-08-25T13:02:39.277Z,100394.48
2022-08-25T13:05:33.561Z,100392.11
2022-08-25T13:08:33.863Z,100385.73
2022-08-25T13:11:10.868Z,100386.67
2022-08-25T13:13:48.477Z,100385.89
2022-08-25T13:16:22.897Z,100382.02
2022-08-25T13:18:58.309Z,100381.54
2022-08-25T13:21:33.187Z,100380.00
2022-08-25T13:24:06.081Z,100371.04
2022-08-25T13:26:47.137Z,100369.09
2022-08-25T13:29:20.785Z,100367.89
2022-08-25T13:31:56.395Z,100370.64
2022-08-25T13:34:34.469Z,100370.25
2022-08-25T13:37:26.371Z,100375.15
2022-08-25T13:40:10.262Z,100369.89
2022-08-25T13:42:42.467Z,100366.52
2022-08-25T13:45:17.185Z,100367.11
2022-08-25T13:47:46.640Z,100363.23
2022-08-25T13:50:30.249Z,100360.27
2022-08-25T13:53:00.457Z,100356.99
2022-08-25T13:55:50.568Z,100358.91
2022-08-25T13:58:24.943Z,100357.48
2022-08-25T14:01:22.861Z,100361.73
2022-08-25T14:04:23.588Z,100359.17
2022-08-25T14:07:13.143Z,100353.36
2022-08-25T14:09:48.862Z,100347.64
2022-08-25T14:12:32.518Z,100343.29
2022-08-25T14:15:04.583Z,100341.55
2022-08-25T14:17:39.315Z,100343.11
2022-08-25T14:20:18.493Z,100338.99
2022-08-25T14:22:46.547Z,100338.77
2022-08-25T14:25:14.727Z,100336.63
2022-08-25T14:28:03.567Z,100331.27
2022-08-25T14:30:35.424Z,100334.73
2022-08-25T14:33:04.752Z,100327.75
2022-08-25T14:35:34.949Z,100329.74
2022-08-25T14:38:07.179Z,100328.89
2022-08-25T14:40:35.257Z,100321.63
2022-08-25T14:43:02.925Z,100317.13
2022-08-25T14:45:31.645Z,100312.45
2022-08-25T14:48:05.126Z,100309.75
2022-08-25T14:50:41.213Z,100305.17
2022-08-25T14:53:11.506Z,100301.84
2022-08-25T14:55:39.727Z,100303.14
2022-08-25T14:58:07.901Z,100299.40
2022-08-25T15:00:40.586Z,100301.66
2022-08-25T15:03:10.125Z,100302.59
2022-08-25T15:05:38.405Z,100298.02
2022-08-25T15:08:31.120Z,100298.87
2022-08-25T15:11:00.690Z,100294.10
2022-08-25T15:13:29.288Z,100291.81
2022-08-25T15:15:58.202Z,100290.84
2022-08-25T15:18:26.055Z,100288.16
2022-08-25T15:20:53.697Z,100291.95
2022-08-25T15:23:21.578Z,100293.35
2022-08-25T15:25:52.777Z,100290.36
2022-08-25T15:28:22.536Z,100287.62
2022-08-25T15:30:50.525Z,100286.18
2022-08-25T15:33:21.040Z,100287.60
2022-08-25T15:35:49.954Z,100282.67
2022-08-25T15:38:18.145Z,100284.30
2022-08-25T15:40:48.500Z,100286.98
2022-08-25T15:43:16.542Z,100291.39
2022-08-25T15:45:44.377Z,100285.77
2022-08-25T15:48:14.119Z,100283.67
2022-08-25T15:50:42.532Z,100278.75
2022-08-25T15:53:10.662Z,100276.30
2022-08-25T15:55:40.165Z,100276.59
2022-08-25T15:58:08.846Z,100271.59
2022-08-25T16:00:37.871Z,100267.75
2022-08-25T16:03:07.165Z,100266.46
2022-08-25T16:05:36.424Z,100255.41
2022-08-25T16:08:05.765Z,100251.02
2022-08-25T16:10:38.798Z,100249.45
2022-08-25T16:13:08.882Z,100252.49
2022-08-25T16:15:37.866Z,100257.33
2022-08-25T16:18:06.804Z,100266.79
2022-08-25T16:20:36.361Z,100275.54
2022-08-25T16:23:04.700Z,100274.75
2022-08-25T16:25:33.479Z,100278.50
2022-08-25T16:28:04.749Z,100273.02
2022-08-25T16:30:32.471Z,100270.73
2022-08-25T16:33:00.294Z,100269.66
2022-08-25T16:35:28.731Z,100266.42
2022-08-25T16:37:57.098Z,100260.56
2022-08-25T16:40:27.289Z,100252.33
2022-08-25T16:42:55.160Z,100248.98
2022-08-25T16:45:23.121Z,100250.04
2022-08-25T16:47:51.160Z,100249.09
2022-08-25T16:50:19.245Z,100250.58
2022-08-25T16:53:07.991Z,100252.91
2022-08-25T16:55:39.235Z,100256.53
2022-08-25T16:58:08.854Z,100260.35
2022-08-25T17:00:41.412Z,100258.59
2022-08-25T17:03:12.363Z,100256.83
2022-08-25T17:05:43.228Z,100253.23
2022-08-25T17:08:28.883Z,100247.89
2022-08-25T17:11:05.352Z,100253.14
2022-08-25T17:13:35.589Z,100261.83
2022-08-25T17:16:05.086Z,100268.23
2022-08-25T17:18:33.226Z,100268.55
2022-08-25T17:21:05.104Z,100268.83
2022-08-25T17:23:33.665Z,100271.96
2022-08-25T17:26:02.267Z,100274.00
2022-08-25T17:28:30.867Z,100275.81
2022-08-25T17:31:00.218Z,100268.85
2022-08-25T17:33:28.086Z,100266.64
2022-08-25T17:35:57.325Z,100265.68
2022-08-25T17:38:26.741Z,100270.41
2022-08-25T17:40:59.820Z,100277.60
2022-08-25T17:43:29.276Z,100277.36
2022-08-25T17:45:57.387Z,100276.73
2022-08-25T17:48:26.194Z,100276.58
2022-08-25T17:50:55.237Z,100277.76
2022-08-25T17:53:22.885Z,100275.16
2022-08-25T17:55:58.637Z,100276.33
2022-08-25T17:58:28.336Z,100274.92
2022-08-25T18:00:57.598Z,100271.29
2022-08-25T18:03:29.473Z,100267.01
2022-08-25T18:05:59.489Z,100270.39
2022-08-25T18:08:35.166Z,100280.83
2022-08-25T18:11:04.738Z,100289.34
2022-08-25T18:13:35.833Z,100284.24
2022-08-25T18:16:07.962Z,100288.29
2022-08-25T18:18:37.121Z,100279.11
2022-08-25T18:21:05.792Z,100282.45
2022-08-25T18:23:35.279Z,100287.52
2022-08-25T18:26:02.998Z,100289.69
2022-08-25T18:28:31.628Z,100291.78
2022-08-25T18:30:59.618Z,100295.61
2022-08-25T18:33:29.932Z,100296.54
2022-08-25T18:35:58.975Z,100302.54
2022-08-25T18:38:58.022Z,100304.85
2022-08-25T18:41:28.200Z,100307.20
2022-08-25T18:43:56.333Z,100304.15
2022-08-25T18:46:24.340Z,100304.98
2022-08-25T18:48:55.023Z,100304.53
2022-08-25T18:51:23.431Z,100301.45
2022-08-25T18:53:54.659Z,100302.30
2022-08-25T18:56:29.209Z,100303.67
2022-08-25T18:58:59.931Z,100297.75
2022-08-25T19:01:29.505Z,100296.42
2022-08-25T19:04:00.377Z,100296.40
2022-08-25T19:06:30.521Z,100292.19
2022-08-25T19:09:02.509Z,100290.68
2022-08-25T19:11:31.212Z,100286.05
2022-08-25T19:14:00.887Z,100283.70
2022-08-25T19:16:35.486Z,100283.52
2022-08-25T19:19:06.412Z,100282.91
2022-08-25T19:21:40.062Z,100285.00
2022-08-25T19:24:10.689Z,100289.02
2022-08-25T19:26:42.036Z,100285.70
2022-08-25T19:29:13.916Z,100285.57
2022-08-25T19:31:48.673Z,100288.35
2022-08-25T19:34:22.193Z,100288.18
2022-08-25T19:36:54.215Z,100285.03
2022-08-25T19:39:23.730Z,100280.38
2022-08-25T19:41:58.003Z,100277.09
2022-08-25T19:44:28.237Z,100274.86
2022-08-25T19:47:02.550Z,100276.10
2022-08-25T19:49:34.905Z,100267.79
2022-08-25T19:52:11.634Z,100265.92
2022-08-25T19:54:45.373Z,100264.85
2022-08-25T19:57:14.465Z,100269.89
2022-08-25T19:59:59.928Z,100267.34
2022-08-25T20:02:34.858Z,100272.59
2022-08-25T20:05:08.468Z,100277.16
2022-08-25T20:07:41.072Z,100283.33
2022-08-25T20:10:14.033Z,100284.41
2022-08-25T20:12:45.522Z,100287.24
2022-08-25T20:15:16.602Z,100289.12
2022-08-25T20:17:46.494Z,100288.93
2022-08-25T20:20:21.718Z,100290.45
2022-08-25T20:22:53.356Z,100294.72
2022-08-25T20:25:26.083Z,100294.95
2022-08-25T20:27:57.560Z,100292.04
2022-08-25T20:30:29.661Z,100294.14
2022-08-25T20:32:59.181Z,100293.70
2022-08-25T20:35:29.467Z,100293.96
2022-08-25T20:38:00.604Z,100291.03
2022-08-25T20:40:32.815Z,100294.86
2022-08-25T20:43:04.812Z,100293.91
2022-08-25T20:45:40.102Z,100293.55
2022-08-25T20:48:09.501Z,100291.83
2022-08-25T20:50:39.047Z,100286.73
2022-08-25T20:53:10.243Z,100287.95
2022-08-25T20:55:42.689Z,100289.11
2022-08-25T20:58:12.445Z,100288.09
2022-08-25T21:00:42.430Z,100289.05
2022-08-25T21:03:10.022Z,100286.27
2022-08-25T21:05:40.646Z,100283.55
2022-08-25T21:08:09.531Z,100283.27
2022-08-25T21:10:39.450Z,100284.60
2022-08-25T21:13:07.312Z,100288.71
2022-08-25T21:15:35.287Z,100288.55
2022-08-25T21:18:03.474Z,100291.09
2022-08-25T21:20:31.217Z,100289.46
2022-08-25T21:25:52.101Z,100288.35
2022-08-25T21:28:19.681Z,100283.82
2022-08-25T21:30:48.928Z,100281.79
2022-08-25T21:33:16.948Z,100280.56
2022-08-25T21:35:44.944Z,100281.95
2022-08-25T21:38:14.844Z,100281.55
2022-08-25T21:40:43.906Z,100284.18
2022-08-25T21:43:12.848Z,100283.60
2022-08-25T21:45:45.782Z,100281.17
2022-08-25T21:48:14.826Z,100278.96
2022-08-25T21:50:42.601Z,100274.30
2022-08-25T21:53:10.428Z,100274.50
2022-08-25T21:55:40.057Z,100272.53
2022-08-25T21:58:09.562Z,100270.54
2022-08-25T22:00:37.119Z,100267.96
2022-08-25T22:03:04.959Z,100263.45
2022-08-25T22:05:36.612Z,100265.83
2022-08-25T22:08:04.604Z,100263.09
2022-08-25T22:10:32.280Z,100262.34
2022-08-25T22:13:00.962Z,100264.74
2022-08-25T22:15:29.038Z,100263.45
2022-08-25T22:17:56.836Z,100257.89
2022-08-25T22:20:24.485Z,100260.90
2022-08-25T22:22:53.308Z,100257.15
2022-08-25T22:25:22.945Z,100255.70
2022-08-25T22:27:56.494Z,100254.59
2022-08-25T22:30:25.382Z,100252.90
2022-08-25T22:32:58.294Z,100255.22
2022-08-25T22:35:28.223Z,100249.05
2022-08-25T22:37:57.889Z,100249.38
2022-08-25T22:40:26.530Z,100246.66
2022-08-25T22:42:55.899Z,100244.38
2022-08-25T22:45:23.551Z,100242.35
2022-08-25T22:47:51.549Z,100239.54
2022-08-25T22:50:19.933Z,100234.23
2022-08-25T22:52:47.982Z,100232.19
2022-08-25T22:55:16.273Z,100228.95
2022-08-25T22:57:44.841Z,100226.74
2022-08-25T23:00:16.018Z,100225.11
2022-08-25T23:02:44.956Z,100228.09
2022-08-25T23:05:14.503Z,100226.46
2022-08-25T23:07:42.259Z,100226.84
2022-08-25T23:10:12.277Z,100222.85
2022-08-25T23:12:41.178Z,100219.36
2022-08-25T23:15:13.337Z,100215.66
2022-08-25T23:17:41.897Z,100214.92
2022-08-25T23:20:25.753Z,100216.55
2022-08-25T23:22:54.022Z,100216.92
2022-08-25T23:25:22.179Z,100214.33
2022-08-25T23:27:49.902Z,100211.70
2022-08-25T23:30:19.529Z,100213.37
2022-08-25T23:32:49.147Z,100214.90
2022-08-25T23:35:18.122Z,100212.83
2022-08-25T23:37:47.020Z,100210.93
2022-08-25T23:40:19.373Z,100210.58
2022-08-25T23:42:47.522Z,100203.98
2022-08-25T23:45:15.611Z,100202.06
2022-08-25T23:47:43.255Z,100202.39
2022-08-25T23:50:11.254Z,100199.45
2022-08-25T23:52:38.795Z,100194.13
2022-08-25T23:55:07.818Z,100194.19
2022-08-25T23:57:35.694Z,100192.29
